x

Nickerson Bank (44251) Wave Buoy

8:00am - Mon 8th Feb 2016 All times are UTC.

  • Sig Wave height 10.8ft
  • Peak Period 7s
  • Wind
    25mph, 31mph gusts
  • Sea Temp 41°f
  • Air Temp 27°f
  • Sea Pressure 1019.7mb

More Historic Weather Station data

Upgrade to MSW Pro to gain access to the past 30 days of data for over 8000 Wavebouys and Weather Stations around the globe.

Join Pro

Comparision Forecast

View Surf forecast
   
Mon 02/08 8:00am 11ft 7s 25 31 mph 1019.7mb 41f 27f
7:00am 10.5ft 7s 27 34 mph 1019.2mb 41f 28f
6:00am 10ft 8s 31 38 mph 1018.6mb 41f 29f
5:00am 9ft 10s 31 36 mph 1017.5mb 40f 30f
4:00am 8.5ft 10s 27 36 mph 1016.9mb 40f 32f
3:00am 8.5ft 10s 25 29 mph 1016mb 40f 34f
2:00am 8ft 10s 25 31 mph 1017mb 40f 34f
1:00am 8ft 10s 25 29 mph 1017.6mb 40f 33f
12:00am 7.5ft 10s 18 20 mph 1018.4mb 40f 33f
Sun 02/07 11:00pm 8ft 11s 16 20 mph 1018.7mb 40f 32f
10:00pm 8.5ft 10s 18 22 mph 1019mb 40f 32f
9:00pm 8ft 10s 16 20 mph 1019.5mb 40f 32f
8:00pm 8.5ft 10s 16 20 mph 1019.5mb 40f 32f
7:00pm 8ft 11s 16 22 mph 1020.3mb 40f 32f
6:00pm 8.5ft 10s 16 20 mph 1021mb 40f 31f
5:00pm 9ft 11s 16 18 mph 1021.8mb 40f 30f
4:00pm 9ft 11s 13 18 mph 1022mb 40f 30f
3:00pm 10ft 11s 18 22 mph 1023mb 40f 30f
2:00pm 10.5ft 11s 13 18 mph 1023.3mb 40f 31f
1:00pm 11ft 11s 16 20 mph 1022.7mb 40f 30f
12:00pm 11.5ft 11s 13 18 mph 1022.6mb 40f 30f
11:00am 12.5ft 12s 13 18 mph 1022.6mb 40f 30f
10:00am 12.5ft 11s 16 20 mph 1022.8mb 40f 30f
9:00am 12ft 12s 18 22 mph 1022.7mb 40f 30f
8:00am 12.5ft 12s 20 25 mph 1022.8mb 40f 30f
7:00am 12ft 12s 25 31 mph 1022.6mb 40f 30f
6:00am 13ft 12s 20 25 mph 1022.2mb 40f 30f
5:00am 13ft 12s 22 27 mph 1021.8mb 40f 30f
4:00am 14ft 12s 25 31 mph 1022mb 40f 29f
3:00am 14ft 10s 27 34 mph 1021.7mb 40f 29f
2:00am 15ft 12s 27 34 mph 1021.2mb 40f 30f
1:00am 15.5ft 12s 29 36 mph 1020.1mb 41f 30f
12:00am 17.5ft 12s 29 36 mph 1019.4mb 41f 30f
Sat 02/06 11:00pm 18.5ft 11s 31 40 mph 1018.4mb 41f 30f
10:00pm 19ft 12s 31 40 mph 1017.1mb 41f 31f
8:00pm 19.5ft 11s 36 43 mph 1013mb 41f 31f
7:00pm 16.5ft 11s 34 45 mph 1011.7mb 41f 33f
6:00pm 16.5ft 10s 27 36 mph 1008.5mb 41f 34f
5:00pm 17.5ft 11s 36 43 mph 1005.4mb 41f 33f
4:00pm 18ft 10s 43 56 mph 1003.2mb 40f 33f
3:00pm 18.5ft 10s 45 60 mph 1000.2mb 40f 34f
2:00pm 17ft 10s 49 63 mph 995.5mb 40f 35f
1:00pm 15.5ft 8s 45 58 mph 991.5mb 40f 37f
12:00pm 13.5ft 8s 40 54 mph 990.3mb 40f 44f
11:00am 11ft 7s 38 47 mph 990.7mb 40f 45f
10:00am 10ft 7s 34 43 mph 993.3mb 40f 44f
9:00am 10ft 7s 34 40 mph 996.4mb 40f 44f
8:00am 9ft 10s 31 36 mph 998.9mb 40f 42f
7:00am 8.5ft 10s 29 34 mph 1001.2mb 40f 41f
6:00am 7.5ft 8s 27 31 mph 1004.3mb 40f 42f
5:00am 7ft 9s 25 36 mph 1005.9mb 40f 41f
4:00am 7ft 9s 20 25 mph 1007.8mb 40f 40f
3:00am 7ft 8s 18 22 mph 1009.6mb 40f 39f
2:00am 6.5ft 9s 18 22 mph 1011.1mb 40f 40f
1:00am 6.5ft 9s 13 18 mph 1012.6mb 40f 37f
12:00am 7ft 9s 16 18 mph 1013.4mb 40f 35f
Fri 02/05 11:00pm 6.5ft 9s 16 20 mph 1014.9mb 40f 35f
10:00pm 7ft 9s 18 20 mph 1015.9mb 40f 35f
9:00pm 7ft 9s 13 16 mph 1016.6mb 40f 34f
8:00pm 7.5ft 9s 7 9 mph 1017.4mb 40f 34f
7:00pm 8ft 9s 2 4 mph 1018.6mb 40f 34f
6:00pm 7ft 9s 4
mph
1019mb 41f 34f
5:00pm 7.5ft 9s  -  2 mph 1019mb 41f 34f
4:00pm 8ft 9s 4 7 mph 1019.5mb 41f 34f
3:00pm 8.5ft 8s 7 9 mph 1020.3mb 41f 34f
2:00pm 9ft 9s 2 4 mph 1020.2mb 41f 35f
1:00pm 9ft 10s 9 11 mph 1020.5mb 41f 35f
12:00pm 11ft 8s 4 7 mph 1019mb 41f 35f
11:00am 10ft 9s 7 9 mph 1018.5mb 41f 35f
10:00am 10.5ft 9s 11 13 mph 1017.5mb 41f 36f
9:00am 11ft 10s 13 18 mph 1016.9mb 41f 36f
8:00am 11ft 10s 16 18 mph 1016.2mb 41f 36f
7:00am 12ft 9s 18 22 mph 1015.2mb 41f 37f
6:00am 12ft 9s 20 22 mph 1015.5mb 41f 38f
5:00am 13ft 9s 25 29 mph 1014.2mb 41f 40f
4:00am 12.5ft 8s 27 34 mph 1013.6mb 40f 40f
3:00am 13ft 8s 27 36 mph 1014.3mb 40f 40f
2:00am 12ft 9s 29 34 mph 1014.3mb 40f 40f
1:00am 14ft 9s 29 36 mph 1015.1mb 40f 40f
12:00am 13ft 9s 31 43 mph 1015.9mb 40f 41f
Thu 02/04 11:00pm 12ft 8s 31 38 mph 1016.8mb 40f 40f
10:00pm 13ft 8s 34 45 mph 1017.4mb 40f 40f
9:00pm 12ft 8s 36 45 mph 1018mb 40f 40f
8:00pm 11.5ft 8s 34 43 mph 1018.6mb 40f 39f
7:00pm 11ft 7s 29 36 mph 1020mb 40f 38f
6:00pm 9ft 7s 34 43 mph 1020.3mb 40f 38f
5:00pm 8ft 6s 31 40 mph 1020.9mb 40f 38f
4:00pm 7ft 6s 31 38 mph 1022.2mb 40f 37f
3:00pm 5ft 5s 27 31 mph 1024.3mb 40f 36f
2:00pm 5ft 5s 22 27 mph 1026.1mb 40f 34f
1:00pm 5ft 4s 18 20 mph 1027.8mb 40f 33f
12:00pm 5ft 15s 18 22 mph 1028.4mb 40f 33f
11:00am 4.5ft 6s 18 22 mph 1029.5mb 40f 32f
10:00am 5ft 15s 20 25 mph 1029.7mb 40f 31f